WXM80 ListenWXM80 Stop

You find our weather info also at:

UK Metoffice

WeatherCloud

Weather Underground

Northeastern Weather Network

AWEKAS

Citizen Weather Observer Program (CWOP)

HAMweather, WeatherForYou, PWS Weather


Weather Underground History page Text

Daily Summary for May 26, 2017 Units:  English    Metric   Both
« Previous Day
Next Day »
Daily Weekly Monthly Yearly Custom
  High: Low: Average:
Temperature: 78.1 °F 53.2 °F 64 °F
Dew Point: 65.4 °F 52.7 °F 57.6 °F
Humidity: 99 % 54 % 82 %
Wind Speed: 8.4 mph 0.0 mph 2.7 mph
Wind Gust: 13.8 mph - -
Wind:- - SW
Pressure: 29.74 in 29.42 in -
Precipitation: 0.50 in    
Historical Graphs
 
 
Tabular Data for May 26, 2017
Time Temperature Dew Point Pressure Wind Wind Speed Wind Gust Humidity Rainfall Rate (Hourly)
00:00 55.8 °F 55.2 °F 29.47 in ENE 2.5 mph 4.0 mph 98 % 0.19 in
00:05 55.7 °F 55.1 °F 29.46 in ENE 3.3 mph 3.5 mph 98 % 0.25 in
00:10 55.7 °F 55.1 °F 29.45 in East 4.3 mph 6.9 mph 98 % 0.27 in
00:15 55.7 °F 55.1 °F 29.43 in ENE 5.1 mph 7.0 mph 98 % 0.29 in
00:20 55.6 °F 55.0 °F 29.43 in East 7.1 mph 11.0 mph 98 % 0.29 in
00:26 55.5 °F 54.9 °F 29.42 in ENE 5.0 mph 10.0 mph 98 % 0.00 in
00:31 55.5 °F 54.9 °F 29.42 in East 3.9 mph 9.2 mph 98 % 0.30 in
00:36 55.5 °F 54.9 °F 29.42 in ENE 3.0 mph 10.0 mph 98 % 0.00 in
00:41 55.4 °F 54.8 °F 29.42 in ENE 3.0 mph 7.0 mph 98 % 0.00 in
00:46 55.4 °F 54.9 °F 29.42 in ENE 3.0 mph 7.0 mph 98 % 0.00 in
00:51 55.5 °F 54.9 °F 29.43 in ENE 2.0 mph 5.0 mph 98 % 0.00 in
00:56 55.6 °F 55.0 °F 29.43 in East 2.0 mph 3.0 mph 98 % 0.00 in
01:01 55.6 °F 55.0 °F 29.43 in East 3.3 mph 3.5 mph 98 % 0.12 in
01:06 55.6 °F 55.0 °F 29.43 in East 2.0 mph 5.0 mph 98 % 0.00 in
01:08 55.6 °F 55.0 °F 29.43 in ENE 1.4 mph 3.5 mph 98 % 0.04 in
01:13 55.5 °F 54.9 °F 29.43 in ENE 2.4 mph 3.5 mph 98 % 0.02 in
01:18 55.5 °F 54.9 °F 29.43 in ENE 2.9 mph 3.5 mph 98 % 0.02 in
01:23 55.5 °F 54.9 °F 29.42 in ENE 1.9 mph 3.5 mph 98 % 0.01 in
01:28 55.5 °F 54.9 °F 29.43 in NE 2.0 mph 3.5 mph 98 % 0.01 in
01:33 55.4 °F 55.1 °F 29.43 in ENE 1.7 mph 3.0 mph 99 % 0.02 in
01:38 55.4 °F 54.8 °F 29.43 in NE 0.3 mph 1.2 mph 98 % 0.02 in
01:43 55.4 °F 54.8 °F 29.43 in NE 0.7 mph 2.3 mph 98 % 0.02 in
01:48 55.4 °F 54.8 °F 29.43 in NE 0.2 mph 2.0 mph 98 % 0.02 in
01:53 55.4 °F 54.8 °F 29.43 in NE 0.2 mph 1.2 mph 98 % 0.03 in
01:58 55.4 °F 54.8 °F 29.43 in ESE 1.2 mph 2.3 mph 98 % 0.03 in
02:03 55.4 °F 54.8 °F 29.44 in Calm   1.2 mph 98 % 0.03 in
02:08 55.3 °F 54.7 °F 29.44 in ESE 0.1 mph 1.2 mph 98 % 0.05 in
02:18 55.3 °F 54.7 °F 29.43 in NE 0.8 mph 3.5 mph 98 % 0.10 in
02:23 55.2 °F 54.6 °F 29.43 in Calm   3.5 mph 98 % 0.14 in
02:28 55.2 °F 54.6 °F 29.43 in NE 0.9 mph 2.3 mph 98 % 0.18 in
02:33 55.1 °F 54.5 °F 29.43 in ENE 0.9 mph 3.5 mph 98 % 0.20 in
02:38 55.1 °F 54.5 °F 29.42 in NE 3.8 mph 6.9 mph 98 % 0.23 in
02:43 55.0 °F 54.4 °F 29.42 in ENE 3.6 mph 6.9 mph 98 % 0.25 in
02:48 55.0 °F 54.4 °F 29.42 in ENE 4.0 mph 5.8 mph 98 % 0.27 in
02:53 55.0 °F 54.4 °F 29.42 in ENE 5.1 mph 8.0 mph 98 % 0.27 in
02:58 55.0 °F 54.4 °F 29.42 in ENE 3.5 mph 10.4 mph 98 % 0.28 in
03:03 54.9 °F 54.3 °F 29.42 in ENE 5.8 mph 10.4 mph 98 % 0.28 in
03:08 54.8 °F 54.2 °F 29.42 in NE 4.6 mph 8.1 mph 98 % 0.26 in
03:14 54.7 °F 54.1 °F 29.42 in ENE 3.8 mph 6.9 mph 98 % 0.23 in
03:19 54.7 °F 54.1 °F 29.43 in ENE 4.9 mph 10.4 mph 98 % 0.19 in
03:24 54.5 °F 53.9 °F 29.42 in ENE 4.5 mph 9.2 mph 98 % 0.15 in
03:34 54.4 °F 53.8 °F 29.43 in ENE 4.9 mph 8.1 mph 98 % 0.08 in
03:39 54.3 °F 53.7 °F 29.43 in ENE 4.4 mph 6.9 mph 98 % 0.06 in
03:44 54.2 °F 53.6 °F 29.43 in ENE 2.8 mph 3.5 mph 98 % 0.03 in
03:49 54.1 °F 53.5 °F 29.43 in East 4.4 mph 8.1 mph 98 % 0.02 in
03:54 54.0 °F 53.4 °F 29.44 in ENE 2.4 mph 8.1 mph 98 % 0.01 in
03:59 53.9 °F 53.3 °F 29.44 in NE 3.8 mph 4.6 mph 98 % 0.01 in
04:04 53.7 °F 53.1 °F 29.44 in ENE 2.2 mph 3.5 mph 98 % 0.01 in
04:09 53.7 °F 53.1 °F 29.45 in ENE 2.1 mph 3.5 mph 98 % 0.01 in
04:14 53.6 °F 53.0 °F 29.45 in NE 1.9 mph 4.6 mph 98 % 0.01 in
04:19 53.6 °F 53.0 °F 29.45 in NE 2.5 mph 3.5 mph 98 % 0.01 in
04:24 53.5 °F 52.9 °F 29.45 in NNW 4.5 mph 6.0 mph 98 % 0.01 in
04:29 53.5 °F 52.9 °F 29.46 in NNW 2.1 mph 4.0 mph 98 % 0.01 in
04:34 53.4 °F 52.8 °F 29.46 in NNE 2.8 mph 5.8 mph 98 % 0.01 in
04:39 53.3 °F 52.8 °F 29.46 in NNE 2.4 mph 3.5 mph 98 % 0.01 in
04:44 53.3 °F 52.8 °F 29.46 in North 3.2 mph 3.5 mph 98 % 0.02 in
04:49 53.3 °F 52.8 °F 29.46 in NNE 1.8 mph 3.5 mph 98 % 0.01 in
04:54 53.3 °F 52.8 °F 29.46 in NNE 0.2 mph 1.2 mph 98 % 0.01 in
04:59 53.2 °F 52.7 °F 29.46 in NNE 0.7 mph 2.3 mph 98 % 0.01 in
05:04 53.2 °F 52.7 °F 29.46 in ENE 0.6 mph 3.5 mph 98 % 0.01 in
05:09 53.2 °F 52.7 °F 29.46 in North 0.4 mph 3.5 mph 98 % 0.02 in
05:14 53.2 °F 52.7 °F 29.47 in NNE 1.6 mph 3.5 mph 98 % 0.02 in
05:19 53.2 °F 52.7 °F 29.47 in NNE 0.4 mph 3.5 mph 98 % 0.02 in
05:24 53.2 °F 52.7 °F 29.47 in Calm   2.3 mph 98 % 0.02 in
05:30 53.2 °F 52.7 °F 29.48 in North 2.4 mph 3.5 mph 98 % 0.02 in
05:35 53.2 °F 52.7 °F 29.48 in Calm     98 % 0.03 in
05:40 53.2 °F 52.7 °F 29.48 in NW 1.9 mph 3.5 mph 98 % 0.03 in
05:45 53.2 °F 52.7 °F 29.49 in Calm   2.3 mph 98 % 0.03 in
05:50 53.2 °F 52.7 °F 29.49 in West 1.3 mph 4.6 mph 98 % 0.04 in
05:55 53.3 °F 52.8 °F 29.49 in NW 2.2 mph 6.9 mph 98 % 0.04 in
06:00 53.3 °F 52.8 °F 29.49 in North 1.5 mph 5.0 mph 98 % 0.05 in
06:05 53.3 °F 52.8 °F 29.50 in NW 0.7 mph 1.0 mph 98 % 0.05 in
06:10 53.3 °F 52.8 °F 29.50 in WNW 3.0 mph 3.5 mph 98 % 0.04 in
06:15 53.4 °F 52.8 °F 29.50 in WNW 2.4 mph 3.5 mph 98 % 0.04 in
06:20 53.4 °F 52.8 °F 29.50 in NNW 1.6 mph 6.0 mph 98 % 0.04 in
06:25 53.5 °F 52.9 °F 29.50 in NNW 1.0 mph 6.0 mph 98 % 0.00 in
06:30 53.5 °F 52.9 °F 29.51 in Calm   2.0 mph 98 % 0.00 in
06:35 53.5 °F 52.9 °F 29.51 in NNW 1.0 mph 3.0 mph 98 % 0.00 in
06:40 53.5 °F 52.9 °F 29.51 in Calm   4.0 mph 98 % 0.00 in
06:45 53.5 °F 52.9 °F 29.51 in WNW 0.1 mph 1.2 mph 98 % 0.02 in
06:50 53.5 °F 52.9 °F 29.52 in WNW 1.5 mph 1.5 mph 98 % 0.01 in
06:53 53.6 °F 53.0 °F 29.51 in NE 1.2 mph 4.6 mph 98 % 0.01 in
06:58 53.6 °F 53.0 °F 29.51 in WNW 0.2 mph 2.3 mph 98 % 0.00 in
07:03 53.6 °F 53.3 °F 29.51 in NNW 1.3 mph 4.0 mph 99 % 0.00 in
07:08 53.7 °F 53.4 °F 29.51 in NNE 0.9 mph 3.5 mph 99 % 0.00 in
07:13 53.7 °F 53.4 °F 29.51 in North 0.3 mph 3.5 mph 99 % 0.00 in
07:18 53.7 °F 53.4 °F 29.52 in NW 0.8 mph 3.5 mph 99 % 0.00 in
07:23 53.8 °F 53.5 °F 29.52 in NW 0.4 mph 2.3 mph 99 % 0.00 in
07:28 53.9 °F 53.6 °F 29.52 in Calm   1.2 mph 99 % 0.00 in
07:33 54.0 °F 53.7 °F 29.52 in NW 0.1 mph 3.5 mph 99 % 0.00 in
07:38 54.1 °F 53.5 °F 29.52 in WNW 0.9 mph 5.8 mph 98 % 0.00 in
07:43 54.2 °F 53.6 °F 29.53 in Calm   2.3 mph 98 % 0.00 in
07:48 54.3 °F 54.0 °F 29.53 in WNW 3.1 mph 4.6 mph 99 % 0.00 in
07:53 54.5 °F 54.2 °F 29.53 in WNW 0.4 mph 2.3 mph 99 % 0.00 in
07:58 54.6 °F 54.3 °F 29.53 in West 1.5 mph 3.5 mph 99 % 0.00 in
08:03 54.8 °F 54.2 °F 29.53 in WNW 0.9 mph 3.5 mph 98 % 0.00 in
08:08 55.0 °F 54.7 °F 29.53 in WNW 0.4 mph 2.3 mph 99 % 0.00 in
08:13 55.2 °F 54.9 °F 29.54 in WNW 0.2 mph 2.0 mph 99 % 0.00 in
08:18 55.4 °F 55.1 °F 29.54 in SW 0.7 mph 2.3 mph 99 % 0.00 in
08:23 55.6 °F 55.3 °F 29.54 in WNW 0.1 mph 3.5 mph 99 % 0.00 in
08:28 55.8 °F 55.5 °F 29.54 in NW 2.0 mph 4.0 mph 99 % 0.00 in
08:34 55.9 °F 55.6 °F 29.54 in West 0.2 mph 3.5 mph 99 % 0.00 in
08:39 56.1 °F 55.8 °F 29.54 in WNW 1.1 mph 5.8 mph 99 % 0.00 in
08:44 56.2 °F 55.9 °F 29.54 in NW 2.6 mph 3.5 mph 99 % 0.00 in
08:49 56.4 °F 56.1 °F 29.54 in WNW 0.1 mph 1.2 mph 99 % 0.00 in
08:54 56.7 °F 56.4 °F 29.54 in WSW 1.3 mph 5.0 mph 99 % 0.00 in
08:59 56.9 °F 56.6 °F 29.54 in NW 2.8 mph 5.8 mph 99 % 0.00 in
09:04 57.0 °F 56.7 °F 29.54 in WNW 1.6 mph 3.5 mph 99 % 0.00 in
09:09 57.3 °F 57.0 °F 29.55 in WNW 2.1 mph 6.9 mph 99 % 0.00 in
09:14 57.7 °F 57.4 °F 29.54 in WSW 4.1 mph 6.0 mph 99 % 0.00 in
09:19 57.8 °F 57.5 °F 29.54 in WSW 2.4 mph 5.8 mph 99 % 0.00 in
09:24 58.0 °F 57.7 °F 29.54 in Calm   1.0 mph 99 % 0.00 in
09:29 58.4 °F 58.1 °F 29.54 in NW 2.8 mph 8.0 mph 99 % 0.00 in
09:34 58.7 °F 58.4 °F 29.54 in West 1.5 mph 3.5 mph 99 % 0.00 in
09:39 58.9 °F 58.6 °F 29.54 in West 5.2 mph 8.1 mph 99 % 0.00 in
09:44 58.9 °F 58.6 °F 29.54 in West 0.3 mph 2.0 mph 99 % 0.00 in
09:49 59.0 °F 58.7 °F 29.54 in West 2.3 mph 4.6 mph 99 % 0.00 in
09:54 59.0 °F 58.4 °F 29.54 in West 1.9 mph 4.6 mph 98 % 0.00 in
09:59 59.1 °F 58.5 °F 29.54 in WNW 2.2 mph 3.5 mph 98 % 0.00 in
10:04 59.4 °F 58.8 °F 29.54 in WSW 5.8 mph 7.0 mph 98 % 0.00 in
10:09 59.6 °F 59.0 °F 29.54 in WSW 3.6 mph 6.9 mph 98 % 0.00 in
10:14 59.8 °F 59.2 °F 29.54 in WSW 2.9 mph 5.8 mph 98 % 0.00 in
10:19 59.9 °F 59.3 °F 29.54 in SW 3.3 mph 5.8 mph 98 % 0.00 in
10:24 60.1 °F 59.5 °F 29.54 in WSW 5.5 mph 6.0 mph 98 % 0.00 in
10:29 60.4 °F 59.8 °F 29.54 in SSW 3.5 mph 7.0 mph 98 % 0.00 in
10:34 61.1 °F 60.2 °F 29.54 in WSW 4.4 mph 8.1 mph 97 % 0.00 in
10:40 61.6 °F 60.7 °F 29.54 in WSW 5.3 mph 11.5 mph 97 % 0.00 in
10:45 61.9 °F 60.5 °F 29.54 in SSW 4.1 mph 11.5 mph 95 % 0.00 in
10:50 62.5 °F 61.0 °F 29.54 in WSW 4.7 mph 8.1 mph 95 % 0.00 in
10:55 63.4 °F 61.6 °F 29.54 in WNW 1.4 mph 3.5 mph 94 % 0.00 in
11:00 63.9 °F 61.5 °F 29.54 in WSW 6.0 mph 9.2 mph 92 % 0.00 in
11:05 64.3 °F 61.3 °F 29.55 in SSW 3.8 mph 5.8 mph 90 % 0.00 in
11:10 64.7 °F 61.7 °F 29.54 in NW 3.9 mph 6.0 mph 90 % 0.00 in
11:15 65.2 °F 62.5 °F 29.54 in WNW 1.0 mph 4.6 mph 91 % 0.00 in
11:20 66.3 °F 63.6 °F 29.54 in WNW 3.0 mph 5.0 mph 91 % 0.00 in
11:25 66.9 °F 62.9 °F 29.54 in SW 5.2 mph 8.1 mph 87 % 0.00 in
11:30 67.4 °F 63.1 °F 29.54 in West 1.0 mph 5.8 mph 86 % 0.00 in
11:35 68.1 °F 63.8 °F 29.54 in NW 2.3 mph 4.6 mph 86 % 0.00 in
11:36 68.1 °F 63.8 °F 29.54 in NW 2.3 mph 4.6 mph 86 % 0.00 in
11:41 68.9 °F 64.5 °F 29.55 in WSW 4.5 mph 10.0 mph 86 % 0.00 in
11:46 69.4 °F 64.0 °F 29.55 in WSW 5.4 mph 9.2 mph 83 % 0.00 in
11:51 70.0 °F 63.9 °F 29.55 in WSW 3.4 mph 11.5 mph 81 % 0.00 in
11:56 70.3 °F 63.5 °F 29.55 in WSW 6.3 mph 10.4 mph 79 % 0.00 in
12:01 70.4 °F 63.6 °F 29.55 in WSW 4.1 mph 11.5 mph 79 % 0.00 in
12:06 70.6 °F 64.1 °F 29.55 in WSW 2.4 mph 4.6 mph 80 % 0.00 in
12:11 70.6 °F 63.4 °F 29.56 in North 1.7 mph 3.5 mph 78 % 0.00 in
12:16 70.6 °F 63.0 °F 29.55 in WNW 5.1 mph 13.8 mph 77 % 0.00 in
12:21 70.4 °F 62.8 °F 29.55 in WNW 0.8 mph 3.5 mph 77 % 0.00 in
12:26 70.3 °F 63.1 °F 29.55 in WSW 7.3 mph 9.0 mph 78 % 0.00 in
12:31 70.0 °F 62.8 °F 29.55 in WSW 5.3 mph 10.4 mph 78 % 0.00 in
12:36 69.8 °F 62.3 °F 29.55 in WSW 5.1 mph 10.4 mph 77 % 0.00 in
12:41 69.7 °F 62.5 °F 29.55 in WSW 2.6 mph 6.0 mph 78 % 0.00 in
12:46 69.6 °F 62.4 °F 29.55 in SW 6.0 mph 8.1 mph 78 % 0.00 in
12:51 69.4 °F 62.2 °F 29.55 in WSW 4.7 mph 9.2 mph 78 % 0.00 in
12:56 69.5 °F 63.4 °F 29.55 in SW 2.8 mph 4.6 mph 81 % 0.00 in
13:01 69.4 °F 62.6 °F 29.55 in WSW 4.0 mph 7.0 mph 79 % 0.00 in
13:11 70.1 °F 64.3 °F 29.55 in West 3.2 mph 6.9 mph 82 % 0.00 in
13:17 70.9 °F 64.4 °F 29.55 in WSW 2.2 mph 4.6 mph 80 % 0.00 in
13:22 71.6 °F 64.4 °F 29.55 in SW 2.1 mph 5.0 mph 78 % 0.00 in
13:27 72.2 °F 65.0 °F 29.55 in SW 3.5 mph 5.0 mph 78 % 0.00 in
13:32 72.6 °F 64.2 °F 29.55 in West 1.6 mph 3.5 mph 75 % 0.00 in
13:37 73.0 °F 64.6 °F 29.55 in NW 2.4 mph 4.6 mph 75 % 0.00 in
13:42 73.8 °F 65.4 °F 29.55 in WSW 3.2 mph 5.0 mph 75 % 0.00 in
13:47 74.4 °F 64.4 °F 29.55 in WSW 3.1 mph 4.6 mph 71 % 0.00 in
13:52 74.9 °F 63.6 °F 29.55 in SW 4.5 mph 8.1 mph 68 % 0.00 in
13:57 75.2 °F 64.7 °F 29.55 in SW 4.6 mph 6.9 mph 70 % 0.00 in
14:02 75.2 °F 64.3 °F 29.55 in West 1.4 mph 2.3 mph 69 % 0.00 in
14:07 75.2 °F 63.9 °F 29.55 in WNW 0.3 mph 3.5 mph 68 % 0.00 in
14:12 75.0 °F 63.3 °F 29.55 in WSW 2.5 mph 4.0 mph 67 % 0.00 in
14:17 74.9 °F 64.0 °F 29.55 in WNW 1.2 mph 2.0 mph 69 % 0.00 in
14:22 74.9 °F 64.9 °F 29.55 in West 1.7 mph 4.0 mph 71 % 0.00 in
14:27 75.1 °F 65.1 °F 29.55 in WNW 0.5 mph 4.6 mph 71 % 0.00 in
14:32 75.4 °F 65.3 °F 29.55 in NW 2.1 mph 4.6 mph 71 % 0.00 in
14:37 75.7 °F 64.4 °F 29.55 in West 4.1 mph 7.0 mph 68 % 0.00 in
14:42 75.9 °F 64.6 °F 29.56 in NNW 1.8 mph 3.5 mph 68 % 0.00 in
14:47 76.0 °F 64.2 °F 29.55 in Calm   1.2 mph 67 % 0.00 in
14:52 76.3 °F 65.4 °F 29.55 in WNW 4.4 mph 6.9 mph 69 % 0.00 in
14:54 76.5 °F 64.3 °F 29.55 in NNW 3.0 mph 6.9 mph 66 % 0.00 in
14:59 76.6 °F 62.6 °F 29.55 in ENE 0.7 mph 5.8 mph 62 % 0.00 in
15:04 76.7 °F 62.2 °F 29.56 in WSW 3.7 mph 8.1 mph 61 % 0.00 in
15:09 77.0 °F 62.0 °F 29.56 in West 7.0 mph 11.5 mph 60 % 0.00 in
15:14 77.0 °F 60.6 °F 29.56 in WNW 5.9 mph 11.5 mph 57 % 0.00 in
15:19 77.0 °F 61.6 °F 29.56 in WNW 4.4 mph 10.4 mph 59 % 0.00 in
15:24 77.2 °F 62.2 °F 29.56 in WNW 2.7 mph 5.0 mph 60 % 0.00 in
15:29 77.3 °F 61.4 °F 29.56 in WNW 6.5 mph 13.8 mph 58 % 0.00 in
15:34 77.3 °F 60.4 °F 29.56 in NW 5.8 mph 8.1 mph 56 % 0.00 in
15:39 77.4 °F 61.0 °F 29.56 in West 5.1 mph 8.1 mph 57 % 0.00 in
15:44 77.5 °F 60.6 °F 29.56 in WNW 4.6 mph 11.5 mph 56 % 0.00 in
15:49 77.5 °F 61.6 °F 29.56 in NW 5.6 mph 9.2 mph 58 % 0.00 in
15:54 77.5 °F 61.6 °F 29.56 in WNW 2.1 mph 4.6 mph 58 % 0.00 in
15:57 77.6 °F 62.1 °F 29.56 in West 5.4 mph 10.4 mph 59 % 0.00 in
16:02 77.7 °F 60.8 °F 29.56 in West 4.5 mph 9.2 mph 56 % 0.00 in
16:07 77.8 °F 60.8 °F 29.56 in West 4.4 mph 11.5 mph 56 % 0.00 in
16:12 77.8 °F 61.3 °F 29.56 in West 3.3 mph 7.0 mph 57 % 0.00 in
16:17 78.0 °F 60.5 °F 29.56 in NW 4.2 mph 5.8 mph 55 % 0.00 in
16:22 78.1 °F 60.6 °F 29.57 in West 4.6 mph 8.0 mph 55 % 0.00 in
16:24 78.0 °F 60.5 °F 29.57 in NW 5.1 mph 9.2 mph 55 % 0.00 in
16:29 77.9 °F 60.4 °F 29.57 in WNW 5.2 mph 8.1 mph 55 % 0.00 in
16:34 77.8 °F 61.3 °F 29.57 in WNW 2.3 mph 3.5 mph 57 % 0.00 in
16:39 77.8 °F 60.3 °F 29.57 in WSW 4.3 mph 9.2 mph 55 % 0.00 in
16:44 77.8 °F 59.8 °F 29.57 in WNW 1.9 mph 4.0 mph 54 % 0.00 in
16:49 77.8 °F 59.8 °F 29.58 in WNW 6.0 mph 9.2 mph 54 % 0.00 in
16:54 77.7 °F 60.2 °F 29.57 in NW 2.2 mph 5.8 mph 55 % 0.00 in
16:59 77.6 °F 59.6 °F 29.57 in WNW 4.5 mph 11.5 mph 54 % 0.00 in
17:04 77.3 °F 59.4 °F 29.57 in NW 3.5 mph 11.5 mph 54 % 0.00 in
17:09 77.0 °F 59.1 °F 29.57 in WSW 2.7 mph 5.8 mph 54 % 0.00 in
17:14 76.7 °F 60.3 °F 29.57 in NW 2.3 mph 5.8 mph 57 % 0.00 in
17:19 76.3 °F 59.9 °F 29.58 in WSW 2.4 mph 9.0 mph 57 % 0.00 in
17:24 76.2 °F 59.4 °F 29.57 in WNW 1.2 mph 3.5 mph 56 % 0.00 in
17:29 76.0 °F 59.2 °F 29.58 in West 5.6 mph 8.0 mph 56 % 0.00 in
17:34 75.9 °F 59.6 °F 29.58 in NW 2.1 mph 6.0 mph 57 % 0.00 in
17:39 75.7 °F 58.9 °F 29.58 in WNW 2.9 mph 4.6 mph 56 % 0.00 in
17:44 75.7 °F 59.9 °F 29.58 in WNW 3.9 mph 5.0 mph 58 % 0.00 in
17:49 75.5 °F 59.7 °F 29.58 in WNW 3.6 mph 6.9 mph 58 % 0.00 in
17:54 75.2 °F 59.4 °F 29.58 in NW 2.8 mph 6.9 mph 58 % 0.00 in
17:59 75.0 °F 59.2 °F 29.59 in WNW 2.6 mph 5.8 mph 58 % 0.00 in
18:04 74.8 °F 59.5 °F 29.59 in WNW 2.5 mph 5.0 mph 59 % 0.00 in
18:10 74.5 °F 59.2 °F 29.59 in WNW 2.6 mph 8.1 mph 59 % 0.00 in
18:15 74.1 °F 58.4 °F 29.59 in West 5.4 mph 9.2 mph 58 % 0.00 in
18:20 73.7 °F 58.9 °F 29.59 in WSW 2.5 mph 10.4 mph 60 % 0.00 in
18:25 73.4 °F 58.7 °F 29.60 in West 6.1 mph 9.2 mph 60 % 0.00 in
18:30 73.0 °F 58.8 °F 29.60 in WNW 1.2 mph 4.6 mph 61 % 0.00 in
18:35 73.0 °F 58.8 °F 29.60 in WNW 3.9 mph 5.8 mph 61 % 0.00 in
18:39 72.9 °F 59.6 °F 29.61 in WNW 3.9 mph 7.0 mph 63 % 0.00 in
18:45 72.8 °F 59.0 °F 29.61 in WNW 3.9 mph 9.0 mph 62 % 0.00 in
18:50 72.7 °F 58.9 °F 29.61 in WNW 3.5 mph 5.8 mph 62 % 0.00 in
18:54 72.7 °F 58.5 °F 29.61 in NW 2.5 mph 9.2 mph 61 % 0.00 in
19:00 72.7 °F 58.5 °F 29.61 in WSW 2.5 mph 5.8 mph 61 % 0.00 in
19:02 72.7 °F 58.5 °F 29.61 in West 4.2 mph 9.2 mph 61 % 0.00 in
19:07 72.5 °F 57.8 °F 29.61 in WNW 5.6 mph 10.4 mph 60 % 0.00 in
19:12 72.4 °F 58.2 °F 29.62 in NW 2.6 mph 8.0 mph 61 % 0.00 in
19:17 72.3 °F 58.1 °F 29.62 in WNW 6.0 mph 9.2 mph 61 % 0.00 in
19:22 72.1 °F 58.4 °F 29.63 in NW 2.9 mph 9.2 mph 62 % 0.00 in
19:27 72.0 °F 57.8 °F 29.63 in NW 4.7 mph 10.4 mph 61 % 0.00 in
19:32 71.8 °F 58.1 °F 29.63 in WNW 5.3 mph 9.2 mph 62 % 0.00 in
19:37 71.6 °F 57.9 °F 29.63 in WNW 2.0 mph 6.9 mph 62 % 0.00 in
19:42 71.4 °F 57.7 °F 29.64 in WNW 8.4 mph 11.5 mph 62 % 0.00 in
19:47 71.1 °F 57.4 °F 29.64 in WNW 4.4 mph 9.0 mph 62 % 0.00 in
19:52 70.9 °F 57.7 °F 29.64 in West 6.3 mph 10.4 mph 63 % 0.00 in
19:57 70.6 °F 57.8 °F 29.64 in West 4.4 mph 9.2 mph 64 % 0.00 in
20:02 70.3 °F 57.5 °F 29.64 in WNW 3.1 mph 9.2 mph 64 % 0.00 in
20:07 70.0 °F 57.7 °F 29.64 in WNW 3.7 mph 10.0 mph 65 % 0.00 in
20:12 69.8 °F 57.9 °F 29.64 in WNW 2.0 mph 9.2 mph 66 % 0.00 in
20:17 69.5 °F 57.2 °F 29.65 in WNW 5.6 mph 9.2 mph 65 % 0.00 in
20:22 69.2 °F 57.4 °F 29.65 in WNW 5.4 mph 10.4 mph 66 % 0.00 in
20:27 69.0 °F 57.2 °F 29.66 in WSW 2.9 mph 7.0 mph 66 % 0.00 in
20:32 68.9 °F 57.1 °F 29.66 in WNW 2.6 mph 10.4 mph 66 % 0.00 in
20:37 68.7 °F 57.3 °F 29.66 in WSW 3.8 mph 10.4 mph 67 % 0.00 in
20:42 68.5 °F 57.1 °F 29.67 in NW 6.1 mph 10.4 mph 67 % 0.00 in
20:47 68.3 °F 57.3 °F 29.67 in WNW 3.5 mph 8.1 mph 68 % 0.00 in
20:52 67.9 °F 56.9 °F 29.67 in WNW 3.3 mph 9.0 mph 68 % 0.00 in
20:57 67.7 °F 57.2 °F 29.68 in WNW 1.5 mph 8.1 mph 69 % 0.00 in
21:03 67.5 °F 57.4 °F 29.68 in NNW 1.9 mph 3.5 mph 70 % 0.00 in
21:08 67.3 °F 57.2 °F 29.69 in WNW 5.0 mph 13.0 mph 70 % 0.00 in
21:13 67.0 °F 56.9 °F 29.69 in NW 2.5 mph 8.1 mph 70 % 0.00 in
21:18 66.7 °F 56.2 °F 29.69 in NNW 3.3 mph 7.0 mph 69 % 0.00 in
21:23 66.4 °F 55.9 °F 29.69 in NE 3.3 mph 8.1 mph 69 % 0.00 in
21:28 66.2 °F 55.7 °F 29.70 in NNW 5.0 mph 10.4 mph 69 % 0.00 in
21:33 66.0 °F 55.5 °F 29.70 in ENE 4.1 mph 6.9 mph 69 % 0.00 in
21:38 65.8 °F 55.7 °F 29.70 in WNW 3.1 mph 9.2 mph 70 % 0.00 in
21:43 65.7 °F 56.0 °F 29.71 in WNW 0.4 mph 6.9 mph 71 % 0.00 in
21:48 65.6 °F 56.3 °F 29.71 in NW 2.6 mph 4.0 mph 72 % 0.00 in
21:53 65.4 °F 56.1 °F 29.72 in NW 2.1 mph 6.9 mph 72 % 0.00 in
21:58 65.3 °F 56.4 °F 29.72 in WNW 2.4 mph 3.5 mph 73 % 0.00 in
22:04 65.1 °F 56.2 °F 29.72 in NW 3.6 mph 8.1 mph 73 % 0.00 in
22:09 65.0 °F 56.5 °F 29.72 in West 1.2 mph 3.5 mph 74 % 0.00 in
22:16 64.9 °F 56.4 °F 29.72 in WNW 2.0 mph 3.0 mph 74 % 0.00 in
22:21 64.4 °F 56.7 °F 29.73 in WNW 2.1 mph 5.0 mph 76 % 0.00 in
22:26 64.1 °F 56.4 °F 29.73 in WNW 2.7 mph 3.5 mph 76 % 0.00 in
22:31 63.9 °F 56.2 °F 29.73 in WNW 1.1 mph 3.5 mph 76 % 0.00 in
22:36 63.6 °F 55.9 °F 29.73 in SW 2.1 mph 5.8 mph 76 % 0.00 in
22:41 63.5 °F 56.2 °F 29.73 in West 0.5 mph 2.3 mph 77 % 0.00 in
22:46 63.4 °F 56.1 °F 29.73 in WNW 0.2 mph 2.3 mph 77 % 0.00 in
22:51 63.2 °F 55.9 °F 29.73 in SW 0.6 mph 3.5 mph 77 % 0.00 in
22:56 63.1 °F 55.8 °F 29.73 in WNW 1.9 mph 5.8 mph 77 % 0.00 in
23:01 63.0 °F 55.7 °F 29.74 in NW 5.0 mph 8.1 mph 77 % 0.00 in
23:06 63.0 °F 55.7 °F 29.74 in WNW 3.5 mph 5.8 mph 77 % 0.00 in
23:11 62.9 °F 55.6 °F 29.74 in WNW 1.7 mph 4.6 mph 77 % 0.00 in
23:16 62.9 °F 55.6 °F 29.74 in WNW 2.5 mph 4.6 mph 77 % 0.00 in
23:21 62.9 °F 55.6 °F 29.74 in NW 2.6 mph 5.8 mph 77 % 0.00 in
23:26 62.8 °F 55.5 °F 29.74 in Calm     77 % 0.00 in
23:31 62.8 °F 55.8 °F 29.74 in Calm     78 % 0.00 in
23:36 62.7 °F 56.1 °F 29.74 in Calm     79 % 0.00 in
23:41 62.6 °F 56.3 °F 29.74 in NW 0.3 mph 2.3 mph 80 % 0.00 in
23:46 62.5 °F 56.2 °F 29.74 in Calm     80 % 0.00 in
23:51 62.3 °F 56.0 °F 29.74 in Calm     80 % 0.00 in
23:55 62.1 °F 55.9 °F 29.74 in Calm     80 % 0.00 in
Crab Meadow Weather
Compliments of Weather Underground - 3 mb

Script developed by  Jim McMurry - jmcmurry@mwt.net Adapted for the template by  Wim van der Kuil - Leuven-Template.eu

Astronomy: Earth is 93 million miles away from the Sun.